Lower Augusta, Pennsylvania
Current Conditions -  °F | °C
As of 12:53 PM on Sunday 23 Nov 2014 (Local Time) from KSEG Reporting Station
Clear Clear  
Wind Chill: 52°   Ceiling: Unl
Heat Index: 52°   Visibility: 10mi
Dew Point: 23°   Wind: 3mph
Humidity: 32%   Direction: NA
Pressure: 30.09"   Gusts: NA
Location:  40.83°N, 76.761°W
Report Text: KSEG 231753Z AUTO VRB03KT 10SM CLR 11/M05 A3009 RMK AO2 SLP193 T01111050 10117 20017 56037 $
Loading
Personal Weather Stations






























Interactive Weather Map New forecast layout! Learn more

10-Day Weather Forecast

Advertisements
Track Severe Weather on mobile